Time;durP1;ratioP1;P1;durP2;ratioP2;P2;SDS_P1;SDS_P2;PMS_P1;PMS_P2;Temp;Humidity;BMP_temperature;BMP_pressure;BME280_temperature;BME280_humidity;BME280_pressure;Samples;Min_cycle;Max_cycle;Signal;HPM_P1;HPM_P2
2023/03/15 00:00:21;;;;;;;35.53;14.05;;;;;;;2.64;65.27;101897.34;4948064;27;20051;-68
2023/03/15 00:02:53;;;;;;;29.60;13.25;;;;;;;2.85;64.62;101900.84;4934686;27;20051;-68
2023/03/15 00:05:28;;;;;;;29.65;12.80;;;;;;;2.98;64.08;101897.94;4943583;27;20052;-68
2023/03/15 00:08:00;;;;;;;31.27;13.43;;;;;;;3.11;63.94;101899.31;4944968;27;20062;-68
2023/03/15 00:10:34;;;;;;;32.95;13.70;;;;;;;3.28;63.68;101910.31;4932413;28;20469;-68
2023/03/15 00:13:06;;;;;;;29.00;13.20;;;;;;;3.15;63.32;101854.72;4946275;27;20105;-68
2023/03/15 00:15:49;;;;;;;40.70;15.48;;;;;;;3.55;63.36;101907.06;4946754;27;20064;-68
2023/03/15 00:18:22;;;;;;;27.63;13.18;;;;;;;3.50;62.60;101877.59;4934293;27;20117;-68
2023/03/15 00:20:56;;;;;;;28.73;12.00;;;;;;;3.89;62.64;101897.19;4946278;27;20051;-68
2023/03/15 00:23:30;;;;;;;30.40;12.15;;;;;;;3.98;62.06;101903.50;4944749;27;20051;-68
2023/03/15 00:26:02;;;;;;;27.92;12.15;;;;;;;3.89;62.31;101899.75;4940558;27;20099;-68
2023/03/15 00:28:35;;;;;;;27.50;11.95;;;;;;;3.91;62.49;101897.22;4947538;27;20062;-68
2023/03/15 00:31:13;;;;;;;25.33;11.52;;;;;;;3.95;62.71;101898.22;4946369;27;20044;-69
2023/03/15 00:33:46;;;;;;;21.13;9.40;;;;;;;4.03;62.82;101886.44;4935901;27;20154;-68
2023/03/15 00:36:23;;;;;;;28.15;10.23;;;;;;;4.14;62.49;101900.63;4947069;27;20272;-69
2023/03/15 00:38:57;;;;;;;24.58;8.65;;;;;;;4.06;62.45;101877.06;4930219;27;20058;-69
2023/03/15 00:41:31;;;;;;;16.65;7.97;;;;;;;4.25;63.07;101882.94;4945854;27;20104;-67
2023/03/15 00:44:04;;;;;;;19.33;8.50;;;;;;;4.46;63.06;101893.13;4936560;27;20142;-69
2023/03/15 00:46:38;;;;;;;18.23;7.45;;;;;;;4.65;62.33;101890.34;4946425;27;20765;-69
2023/03/15 00:49:11;;;;;;;15.25;6.82;;;;;;;4.61;62.06;101887.59;4945290;27;20124;-67
2023/03/15 00:51:46;;;;;;;18.30;7.13;;;;;;;4.47;62.12;101885.44;4947008;27;20053;-68
2023/03/15 00:54:22;;;;;;;18.88;8.68;;;;;;;4.35;62.38;101884.13;4947566;27;20059;-69
2023/03/15 00:56:57;;;;;;;17.02;7.43;;;;;;;4.20;62.52;101898.28;4933694;27;20051;-69
2023/03/15 00:59:34;;;;;;;17.17;7.90;;;;;;;4.17;63.73;101894.69;4943582;27;20164;-69
2023/03/15 01:02:12;;;;;;;15.80;6.10;;;;;;;4.17;63.22;101898.19;4935926;27;20096;-68
2023/03/15 01:04:47;;;;;;;15.23;7.05;;;;;;;4.17;63.49;101889.50;4936391;27;20055;-68
2023/03/15 01:07:20;;;;;;;19.80;6.82;;;;;;;4.11;63.45;101895.34;4946571;27;20048;-67
2023/03/15 01:09:52;;;;;;;13.43;6.45;;;;;;;4.08;63.40;101890.94;4939670;27;20045;-67
2023/03/15 01:12:24;;;;;;;19.95;7.60;;;;;;;4.16;63.72;101886.06;4946183;27;20058;-68
2023/03/15 01:14:55;;;;;;;17.75;7.35;;;;;;;4.13;64.02;101882.50;4944741;27;20048;-68
2023/03/15 01:17:29;;;;;;;15.82;6.82;;;;;;;4.05;63.32;101882.22;4947070;27;20986;-68
2023/03/15 01:20:03;;;;;;;15.80;6.18;;;;;;;3.88;63.19;101877.28;4952349;27;20049;-67
2023/03/15 01:22:35;;;;;;;16.63;6.68;;;;;;;3.81;63.38;101885.66;4946497;27;20111;-67
2023/03/15 01:25:08;;;;;;;18.35;6.20;;;;;;;3.80;63.46;101895.94;4945694;27;20052;-67
2023/03/15 01:27:39;;;;;;;15.63;5.72;;;;;;;3.68;63.36;101904.13;4943368;27;20054;-67
2023/03/15 01:30:12;;;;;;;15.10;6.57;;;;;;;3.53;63.93;101893.19;4942644;27;20060;-67
2023/03/15 01:32:45;;;;;;;17.13;6.00;;;;;;;3.56;64.04;101893.31;4943320;27;20052;-67
2023/03/15 01:35:17;;;;;;;17.58;6.80;;;;;;;3.44;64.17;101904.94;4944649;27;20063;-66
2023/03/15 01:37:52;;;;;;;16.65;6.63;;;;;;;3.45;64.45;101900.66;4945366;27;20051;-66
2023/03/15 01:40:27;;;;;;;20.58;8.02;;;;;;;3.49;64.88;101888.72;4934707;27;20564;-66
2023/03/15 01:43:16;;;;;;;21.17;8.85;;;;;;;3.60;64.70;101905.53;4945255;27;20054;-66
2023/03/15 01:46:16;;;;;;;14.95;6.15;;;;;;;3.46;63.63;101908.44;4934294;27;20108;-66
2023/03/15 01:48:54;;;;;;;56.58;25.67;;;;;;;3.27;64.00;101890.50;4935715;27;20048;-65
2023/03/15 01:51:31;;;;;;;31.83;16.33;;;;;;;3.40;64.67;101897.88;4933023;27;20143;-66
2023/03/15 01:54:07;;;;;;;21.27;10.65;;;;;;;3.46;64.64;101903.28;4934650;27;20055;-66
2023/03/15 01:56:43;;;;;;;14.63;8.50;;;;;;;3.48;64.09;101902.47;4945285;27;20138;-65
2023/03/15 01:59:21;;;;;;;16.35;6.85;;;;;;;3.48;63.93;101894.72;4934038;27;20048;-65
2023/03/15 02:01:54;;;;;;;11.75;6.90;;;;;;;3.43;64.31;101887.66;4934047;27;20189;-65
2023/03/15 02:04:34;;;;;;;17.50;6.85;;;;;;;3.34;64.37;101879.53;4945499;27;20047;-64
2023/03/15 02:07:09;;;;;;;11.73;5.50;;;;;;;3.37;64.35;101886.53;4935838;27;20047;-65
2023/03/15 02:09:51;;;;;;;18.88;8.30;;;;;;;3.39;64.14;101885.78;4943159;27;20065;-64
2023/03/15 02:12:23;;;;;;;15.63;8.52;;;;;;;3.38;63.82;101877.97;4933386;27;20050;-64
2023/03/15 02:14:55;;;;;;;16.08;6.15;;;;;;;3.42;64.41;101885.91;4945335;27;20040;-64
2023/03/15 02:17:34;;;;;;;11.25;6.20;;;;;;;3.48;64.56;101884.38;4945554;27;20161;-66
2023/03/15 02:20:26;;;;;;;15.38;6.10;;;;;;;3.44;63.69;101889.44;4933326;27;20059;-64
2023/03/15 02:22:59;;;;;;;14.52;6.95;;;;;;;3.30;63.92;101888.03;4933079;27;20408;-65
2023/03/15 02:25:40;;;;;;;12.27;5.75;;;;;;;3.13;64.12;101870.97;4942180;27;20086;-65
2023/03/15 02:28:16;;;;;;;17.88;8.63;;;;;;;3.07;64.33;101878.47;4936449;27;20057;-63
2023/03/15 02:30:49;;;;;;;20.17;8.57;;;;;;;3.11;65.10;101878.66;4943399;27;20055;-64
2023/03/15 02:33:25;;;;;;;18.80;11.52;;;;;;;3.17;65.03;101872.84;4944747;27;21805;-63
2023/03/15 02:35:57;;;;;;;16.60;6.32;;;;;;;2.98;64.17;101851.47;4945086;27;20051;-63
2023/03/15 02:38:29;;;;;;;15.20;6.13;;;;;;;2.95;64.65;101866.84;4943126;27;20058;-64
2023/03/15 02:41:01;;;;;;;16.67;5.35;;;;;;;2.78;64.57;101878.16;4940765;28;20448;-67
2023/03/15 02:43:36;;;;;;;16.63;5.80;;;;;;;2.73;64.70;101884.84;4944857;27;20055;-67
2023/03/15 02:46:08;;;;;;;15.68;5.50;;;;;;;2.67;65.31;101884.56;4943941;27;20074;-66
2023/03/15 02:48:43;;;;;;;12.23;5.40;;;;;;;2.75;65.64;101888.38;4943444;27;20051;-69
2023/03/15 02:51:21;;;;;;;14.75;5.43;;;;;;;2.61;65.83;101858.53;4933227;28;20523;-68
2023/03/15 02:53:53;;;;;;;15.30;6.15;;;;;;;2.74;65.77;101871.09;4934345;27;20130;-66
2023/03/15 02:56:25;;;;;;;40.72;20.15;;;;;;;2.73;65.26;101865.06;4942223;28;20052;-68
2023/03/15 02:58:58;;;;;;;56.58;29.42;;;;;;;2.79;65.62;101865.31;4944160;28;20449;-67
2023/03/15 03:01:30;;;;;;;17.48;11.77;;;;;;;2.85;65.04;101838.88;4945043;28;20051;-69
2023/03/15 03:04:02;;;;;;;17.00;9.60;;;;;;;2.69;64.89;101805.50;4939584;27;20059;-65
2023/03/15 03:06:34;;;;;;;15.20;6.45;;;;;;;2.95;63.81;101825.53;4947134;27;20482;-65
2023/03/15 03:09:06;;;;;;;10.07;5.57;;;;;;;2.97;63.62;101821.31;4948279;27;20070;-69
2023/03/15 03:11:40;;;;;;;12.75;5.43;;;;;;;3.05;63.62;101816.44;4947907;27;20486;-67
2023/03/15 03:14:14;;;;;;;10.38;5.45;;;;;;;3.00;63.12;101818.84;4939358;27;20256;-67
2023/03/15 03:16:46;;;;;;;12.50;5.63;;;;;;;3.07;63.12;101829.38;4948023;27;20071;-65
2023/03/15 03:19:18;;;;;;;14.48;5.93;;;;;;;3.12;63.23;101838.19;4948437;27;20055;-68
2023/03/15 03:21:50;;;;;;;10.63;5.22;;;;;;;3.21;62.46;101835.97;4940380;27;20371;-70
2023/03/15 03:24:24;;;;;;;14.38;5.05;;;;;;;3.38;62.49;101827.19;4938223;27;20044;-65
2023/03/15 03:26:56;;;;;;;13.60;5.20;;;;;;;3.58;61.82;101834.81;4947984;27;20047;-69
2023/03/15 03:29:30;;;;;;;14.60;5.70;;;;;;;3.67;61.53;101845.50;4948499;27;20072;-69
2023/03/15 03:32:03;;;;;;;12.85;5.45;;;;;;;3.70;60.82;101840.44;4937255;27;20212;-66
2023/03/15 03:34:35;;;;;;;13.98;5.30;;;;;;;3.62;60.96;101841.81;4948363;27;20055;-66
2023/03/15 03:37:10;;;;;;;28.23;9.73;;;;;;;3.64;61.65;101845.34;4945766;27;20054;-64
2023/03/15 03:39:44;;;;;;;15.73;6.63;;;;;;;3.70;61.86;101840.44;4937051;27;20055;-67
2023/03/15 03:42:16;;;;;;;14.18;6.40;;;;;;;3.58;62.17;101839.97;4947105;27;20159;-67
2023/03/15 03:44:49;;;;;;;15.68;7.60;;;;;;;3.41;61.82;101847.09;4947766;27;20493;-67
2023/03/15 03:47:22;;;;;;;15.73;5.53;;;;;;;3.31;61.70;101832.94;4944316;27;20098;-66
2023/03/15 03:49:54;;;;;;;13.48;5.68;;;;;;;3.35;62.40;101833.94;4947264;27;20746;-64
2023/03/15 03:52:26;;;;;;;15.23;5.68;;;;;;;3.35;62.31;101832.22;4947840;27;20225;-64
2023/03/15 03:54:58;;;;;;;12.73;5.82;;;;;;;3.34;62.79;101840.78;4948430;27;20578;-68
2023/03/15 03:57:30;;;;;;;12.60;5.78;;;;;;;3.27;61.71;101830.16;4947894;27;20113;-67
2023/03/15 04:00:05;;;;;;;10.57;6.18;;;;;;;3.30;62.35;101827.72;4938250;27;20058;-64
2023/03/15 04:02:37;;;;;;;13.40;5.63;;;;;;;3.34;62.16;101835.63;4947908;27;20083;-67
2023/03/15 04:05:10;;;;;;;9.23;5.00;;;;;;;3.28;61.58;101830.22;4948430;27;20547;-66
2023/03/15 04:07:42;;;;;;;12.48;5.28;;;;;;;3.22;61.61;101827.41;4941514;27;20171;-67
2023/03/15 04:10:25;;;;;;;20.40;9.50;;;;;;;3.06;62.18;101830.22;4947364;27;20056;-65
2023/03/15 04:13:07;;;;;;;18.17;5.97;;;;;;;2.40;62.40;101753.63;4937215;27;21190;-62
2023/03/15 04:15:45;;;;;;;16.55;5.93;;;;;;;2.75;63.03;101821.28;4921038;27;20055;-66
2023/03/15 04:18:17;;;;;;;10.10;5.93;;;;;;;2.64;63.26;101818.22;4944918;27;20043;-66
2023/03/15 04:20:53;;;;;;;12.52;5.72;;;;;;;2.72;63.56;101832.34;4947371;27;20059;-68
2023/03/15 04:23:25;;;;;;;11.63;5.15;;;;;;;2.74;63.41;101819.50;4936397;27;20386;-65
2023/03/15 04:25:58;;;;;;;14.65;5.75;;;;;;;2.70;63.34;101822.78;4946395;27;20048;-66
2023/03/15 04:28:30;;;;;;;12.88;5.60;;;;;;;2.67;63.77;101818.38;4946554;27;20048;-63
2023/03/15 04:31:09;;;;;;;19.23;7.43;;;;;;;2.79;63.25;101812.81;4938286;27;21033;-65
2023/03/15 04:33:41;;;;;;;17.05;6.63;;;;;;;2.73;62.88;101781.59;4944331;27;20052;-63
2023/03/15 04:36:20;;;;;;;19.85;5.70;;;;;;;3.08;61.71;101800.19;4948357;27;20120;-68
2023/03/15 04:39:02;;;;;;;16.10;5.57;;;;;;;3.03;61.41;101762.13;4940248;27;20422;-64
2023/03/15 04:41:35;;;;;;;12.82;5.25;;;;;;;3.41;60.62;101796.28;4936046;27;20051;-65
2023/03/15 04:44:09;;;;;;;10.88;5.05;;;;;;;3.68;60.18;101811.06;4945695;27;20067;-64
2023/03/15 04:46:42;;;;;;;13.02;5.38;;;;;;;3.86;58.70;101801.34;4942775;27;20152;-63
2023/03/15 04:49:14;;;;;;;10.95;5.00;;;;;;;4.18;58.77;101804.19;4947247;27;20047;-63
2023/03/15 04:51:46;;;;;;;13.65;4.85;;;;;;;4.45;57.56;101798.22;4946638;27;20056;-59
2023/03/15 04:54:18;;;;;;;14.40;5.82;;;;;;;4.66;56.38;101809.25;4945615;27;20105;-60
2023/03/15 04:56:57;;;;;;;12.40;5.18;;;;;;;4.73;56.35;101800.84;4946369;27;20059;-62
2023/03/15 04:59:33;;;;;;;12.40;5.38;;;;;;;4.86;54.75;101796.06;4936035;27;20057;-63
2023/03/15 05:02:07;;;;;;;12.40;5.85;;;;;;;4.72;54.03;101796.53;4946532;27;20055;-65
2023/03/15 05:04:38;;;;;;;13.25;6.22;;;;;;;4.69;54.47;101801.59;4945188;27;20082;-64
2023/03/15 05:07:11;;;;;;;16.65;8.77;;;;;;;4.35;54.78;101767.69;4947176;27;20112;-64
2023/03/15 05:09:46;;;;;;;12.18;6.18;;;;;;;4.47;54.66;101792.25;4936481;27;20720;-65
2023/03/15 05:12:18;;;;;;;15.05;5.70;;;;;;;4.42;55.08;101785.13;4945247;27;20120;-65
2023/03/15 05:14:50;;;;;;;15.73;5.72;;;;;;;4.40;55.12;101784.25;4946381;27;20064;-66
2023/03/15 05:17:25;;;;;;;16.80;6.43;;;;;;;4.24;56.00;101793.16;4936167;27;20125;-66
2023/03/15 05:19:57;;;;;;;14.73;6.00;;;;;;;3.81;56.36;101704.66;4945947;27;20544;-66
2023/03/15 05:22:30;;;;;;;10.65;5.07;;;;;;;4.33;56.98;101788.31;4945537;27;20051;-66
2023/03/15 05:25:01;;;;;;;13.00;5.53;;;;;;;4.43;56.70;101781.75;4942958;27;20064;-62
2023/03/15 05:27:33;;;;;;;13.18;5.90;;;;;;;4.38;57.12;101788.47;4944387;27;20134;-64
2023/03/15 05:30:07;;;;;;;14.23;5.45;;;;;;;4.17;56.83;101789.53;4945088;27;20048;-65
2023/03/15 05:32:48;;;;;;;12.23;4.97;;;;;;;3.95;57.26;101771.50;4945554;27;20047;-66
2023/03/15 05:35:31;;;;;;;15.48;5.55;;;;;;;3.92;57.18;101786.88;4935263;27;20054;-63
2023/03/15 05:38:13;;;;;;;18.75;7.25;;;;;;;3.87;57.55;101792.78;4933740;27;20401;-65
2023/03/15 05:40:46;;;;;;;10.40;5.07;;;;;;;3.63;57.48;101797.94;4917277;27;20051;-64
2023/03/15 05:43:18;;;;;;;12.82;5.65;;;;;;;3.53;57.96;101800.16;4945886;27;20067;-63
2023/03/15 05:45:50;;;;;;;14.23;5.45;;;;;;;3.38;58.34;101800.47;4946622;27;20134;-65
2023/03/15 05:48:24;;;;;;;10.45;5.05;;;;;;;3.29;58.72;101790.66;4938187;27;20053;-65
2023/03/15 05:50:56;;;;;;;12.90;5.93;;;;;;;3.18;59.47;101791.97;4942954;27;20048;-67
2023/03/15 05:53:28;;;;;;;11.95;5.20;;;;;;;3.08;59.87;101780.41;4945863;27;20085;-66
2023/03/15 05:56:00;;;;;;;15.45;5.32;;;;;;;3.03;60.23;101777.63;4942617;27;20049;-61
2023/03/15 05:58:32;;;;;;;15.70;8.32;;;;;;;2.77;60.54;101719.84;4934205;27;20053;-65
2023/03/15 06:01:04;;;;;;;23.77;9.70;;;;;;;3.05;59.72;101769.09;4945124;27;20051;-65
2023/03/15 06:03:38;;;;;;;12.70;5.95;;;;;;;2.71;59.97;101747.09;4945623;27;20052;-63
2023/03/15 06:06:10;;;;;;;16.77;6.40;;;;;;;2.78;60.26;101787.81;4944121;27;20055;-65
2023/03/15 06:08:43;;;;;;;12.10;6.00;;;;;;;2.82;61.04;101781.94;4934625;27;20063;-64
2023/03/15 06:11:22;;;;;;;13.07;5.57;;;;;;;2.75;60.84;101774.81;4945982;27;20096;-66
2023/03/15 06:13:58;;;;;;;11.35;5.35;;;;;;;2.63;60.56;101771.72;4934658;27;20051;-63
2023/03/15 06:16:29;;;;;;;14.10;5.10;;;;;;;2.51;60.62;101770.41;4944179;27;20470;-64
2023/03/15 06:19:04;;;;;;;18.27;6.22;;;;;;;2.38;60.90;101773.31;4940160;27;20056;-63
2023/03/15 06:21:36;;;;;;;11.40;5.55;;;;;;;2.30;61.18;101764.38;4945260;27;20051;-65
2023/03/15 06:24:09;;;;;;;15.48;5.53;;;;;;;2.23;61.56;101777.84;4943672;27;20058;-66
2023/03/15 06:26:41;;;;;;;14.07;5.53;;;;;;;2.22;61.88;101771.81;4942160;27;20040;-66
2023/03/15 06:29:13;;;;;;;13.63;5.60;;;;;;;2.21;62.11;101777.75;4944291;27;20070;-64
2023/03/15 06:31:46;;;;;;;19.73;5.72;;;;;;;2.21;62.09;101779.47;4944744;27;20082;-68
2023/03/15 06:34:27;;;;;;;12.25;4.90;;;;;;;2.23;62.05;101788.16;4938722;28;20060;-66
2023/03/15 06:36:59;;;;;;;74.90;35.00;;;;;;;2.16;62.63;101782.72;4943581;27;20085;-67
2023/03/15 06:39:33;;;;;;;25.52;9.68;;;;;;;2.15;62.41;101791.28;4939835;27;21397;-66
2023/03/15 06:42:05;;;;;;;21.10;10.52;;;;;;;2.12;62.48;101796.31;4943713;28;20052;-66
2023/03/15 06:44:39;;;;;;;22.42;7.65;;;;;;;2.15;62.37;101796.44;4943866;28;20104;-67
2023/03/15 06:47:12;;;;;;;16.15;6.35;;;;;;;2.07;62.50;101787.50;4942717;27;20053;-68
2023/03/15 06:49:49;;;;;;;11.35;5.35;;;;;;;1.94;62.40;101787.78;4945149;28;20051;-66
2023/03/15 06:52:21;;;;;;;10.68;5.13;;;;;;;1.87;63.03;101788.31;4941857;28;21587;-65
2023/03/15 06:54:53;;;;;;;13.77;5.32;;;;;;;1.90;62.75;101801.38;4933973;28;20073;-69
2023/03/15 06:57:24;;;;;;;11.98;5.15;;;;;;;1.90;63.40;101806.53;4944843;28;20167;-64
2023/03/15 06:59:56;;;;;;;19.40;6.50;;;;;;;1.90;63.22;101814.25;4943709;28;20047;-65
2023/03/15 07:02:32;;;;;;;13.27;6.00;;;;;;;1.87;63.19;101798.63;4943779;28;20043;-66
2023/03/15 07:05:05;;;;;;;11.23;5.18;;;;;;;1.89;63.33;101802.16;4933705;28;20470;-65
2023/03/15 07:07:35;;;;;;;13.32;5.32;;;;;;;1.80;63.84;101791.44;4944747;28;20740;-69
2023/03/15 07:10:06;;;;;;;16.70;7.05;;;;;;;1.86;63.78;101802.03;4943366;28;20130;-67
2023/03/15 07:12:37;;;;;;;12.40;5.60;;;;;;;1.83;63.47;101804.50;4943442;28;20070;-67
2023/03/15 07:15:08;;;;;;;14.20;5.35;;;;;;;1.80;63.74;101796.59;4944476;28;20047;-66
2023/03/15 07:17:39;;;;;;;11.93;5.57;;;;;;;1.86;63.82;101794.31;4944253;28;20059;-67
2023/03/15 07:20:12;;;;;;;14.15;5.90;;;;;;;1.88;63.93;101801.28;4943830;28;20891;-68
2023/03/15 07:22:44;;;;;;;30.20;18.67;;;;;;;1.88;63.59;101800.41;4926633;28;21489;-65
2023/03/15 07:25:14;;;;;;;16.95;10.63;;;;;;;1.89;63.84;101792.72;4933343;28;20052;-69
2023/03/15 07:27:45;;;;;;;14.95;6.00;;;;;;;1.43;63.61;101712.56;4931120;28;20040;-66
2023/03/15 07:30:16;;;;;;;14.63;5.50;;;;;;;1.81;63.58;101788.06;4932878;28;20483;-65
2023/03/15 07:32:47;;;;;;;17.15;6.20;;;;;;;1.75;63.88;101788.69;4932206;28;20071;-70
2023/03/15 07:35:19;;;;;;;16.90;6.45;;;;;;;1.68;64.09;101791.81;4932776;28;20047;-68
2023/03/15 07:37:50;;;;;;;18.02;6.47;;;;;;;1.62;64.36;101786.38;4930998;28;20067;-64
2023/03/15 07:40:20;;;;;;;19.33;7.18;;;;;;;1.59;64.51;101796.53;4930805;28;20091;-67
2023/03/15 07:42:51;;;;;;;18.05;6.72;;;;;;;1.49;64.89;101795.25;4935357;28;20041;-69
2023/03/15 07:45:21;;;;;;;19.60;7.03;;;;;;;1.02;65.36;101709.91;4934600;28;20053;-65
2023/03/15 07:47:52;;;;;;;31.02;19.20;;;;;;;1.39;65.23;101782.78;4932498;28;20047;-66
2023/03/15 07:50:26;;;;;;;15.60;10.18;;;;;;;1.31;65.31;101769.56;4934720;28;20059;-68
2023/03/15 07:52:57;;;;;;;20.25;6.70;;;;;;;1.13;65.24;101759.31;4936425;28;20062;-69
2023/03/15 07:55:27;;;;;;;16.92;6.88;;;;;;;1.20;65.66;101781.94;4935808;28;20070;-69
2023/03/15 07:58:04;;;;;;;21.10;7.85;;;;;;;1.15;66.26;101783.44;4937044;28;20059;-65
2023/03/15 08:00:35;;;;;;;18.00;7.20;;;;;;;1.13;66.44;101773.88;4926358;27;20043;-65
2023/03/15 08:03:06;;;;;;;18.25;7.63;;;;;;;0.43;66.43;101670.28;4934944;28;20399;-69
2023/03/15 08:05:41;;;;;;;14.07;7.40;;;;;;;1.04;66.58;101779.47;4935844;28;20101;-66
2023/03/15 08:08:14;;;;;;;19.83;6.72;;;;;;;0.98;66.97;101774.03;4927622;27;20059;-67
2023/03/15 08:10:46;;;;;;;12.95;6.63;;;;;;;0.92;67.26;101786.59;4935362;28;20055;-69
2023/03/15 08:13:16;;;;;;;17.83;6.28;;;;;;;0.87;67.32;101778.66;4934617;28;20052;-69
2023/03/15 08:15:52;;;;;;;14.23;6.72;;;;;;;0.73;67.34;101766.84;4935300;28;20056;-69
2023/03/15 08:18:27;;;;;;;14.35;6.45;;;;;;;0.72;67.48;101785.66;4923392;28;20525;-69
2023/03/15 08:20:59;;;;;;;16.58;6.55;;;;;;;0.64;67.87;101787.88;4935854;28;20382;-67
2023/03/15 08:23:34;;;;;;;14.07;6.78;;;;;;;0.56;68.28;101771.19;4934904;27;20057;-68
2023/03/15 08:26:05;;;;;;;18.35;7.43;;;;;;;0.54;68.52;101795.94;4946790;27;20052;-67
2023/03/15 08:28:35;;;;;;;17.45;7.13;;;;;;;0.49;69.00;101787.13;4946078;27;20067;-66
2023/03/15 08:31:08;;;;;;;15.32;7.20;;;;;;;0.47;69.43;101788.72;4947681;27;20087;-69
2023/03/15 08:33:44;;;;;;;16.92;6.38;;;;;;;0.46;70.10;101792.13;4946624;27;20715;-63
2023/03/15 08:36:20;;;;;;;17.30;6.97;;;;;;;0.41;70.04;101785.06;4936203;27;20137;-66
2023/03/15 08:38:53;;;;;;;10.60;5.90;;;;;;;0.31;70.27;101780.25;4943860;27;20068;-70
2023/03/15 08:41:29;;;;;;;14.93;7.20;;;;;;;0.15;70.62;101744.31;4946978;27;20051;-70
2023/03/15 08:44:00;;;;;;;22.88;7.88;;;;;;;0.30;70.81;101775.94;4943320;27;20059;-67
2023/03/15 08:46:34;;;;;;;18.42;7.88;;;;;;;0.31;71.36;101781.97;4952474;27;20073;-64
2023/03/15 08:49:04;;;;;;;22.23;7.82;;;;;;;0.36;71.55;101776.22;4947325;27;20052;-69
2023/03/15 08:51:37;;;;;;;22.25;7.88;;;;;;;0.11;71.43;101747.56;4944503;27;20087;-70
2023/03/15 08:54:14;;;;;;;25.25;7.45;;;;;;;0.25;71.63;101772.25;4946571;27;20076;-68
2023/03/15 08:56:52;;;;;;;18.60;8.00;;;;;;;0.31;71.85;101771.69;4936417;27;20055;-66
2023/03/15 08:59:27;;;;;;;16.25;7.68;;;;;;;0.23;71.93;101753.31;4949965;28;20052;-67
2023/03/15 09:02:03;;;;;;;20.45;7.88;;;;;;;0.24;72.21;101760.19;4940838;27;20056;-65
2023/03/15 09:04:34;;;;;;;25.55;8.93;;;;;;;0.16;72.17;101756.38;4946338;27;20466;-66
2023/03/15 09:07:13;;;;;;;15.13;8.32;;;;;;;0.15;72.42;101754.59;4947318;27;20058;-65
2023/03/15 09:09:46;;;;;;;16.00;8.75;;;;;;;0.12;72.19;101754.44;4933898;27;20051;-68
2023/03/15 09:12:22;;;;;;;20.35;9.13;;;;;;;-0.06;72.44;101724.44;4944412;27;20044;-64
2023/03/15 09:15:10;;;;;;;21.73;10.27;;;;;;;0.09;72.54;101749.16;4935634;27;20135;-65
2023/03/15 09:17:42;;;;;;;23.80;10.27;;;;;;;-0.04;72.81;101738.25;4936929;27;20072;-66
2023/03/15 09:20:15;;;;;;;22.45;9.57;;;;;;;0.04;73.26;101745.47;4942160;27;20058;-67
2023/03/15 09:22:53;;;;;;;23.48;9.25;;;;;;;0.08;73.27;101742.25;4943764;27;20124;-66
2023/03/15 09:25:24;;;;;;;20.15;8.98;;;;;;;0.06;73.37;101749.00;4934843;27;20074;-68
2023/03/15 09:27:58;;;;;;;17.83;8.70;;;;;;;0.11;73.46;101748.44;4945248;28;20097;-67
2023/03/15 09:30:29;;;;;;;20.90;8.70;;;;;;;0.08;73.30;101744.84;4945615;27;20059;-68
2023/03/15 09:33:03;;;;;;;17.17;9.18;;;;;;;0.04;73.35;101746.34;4944786;27;20290;-69
2023/03/15 09:35:43;;;;;;;16.45;8.25;;;;;;;-0.01;73.54;101758.97;4933739;27;20489;-69
2023/03/15 09:38:16;;;;;;;25.67;10.68;;;;;;;0.03;73.19;101748.88;4945254;27;20047;-69
2023/03/15 09:40:47;;;;;;;18.20;7.63;;;;;;;-0.02;72.78;101746.94;4944984;27;20043;-67
2023/03/15 09:43:39;;;;;;;20.58;8.40;;;;;;;-0.11;72.84;101736.19;4945756;27;20048;-66
2023/03/15 09:46:30;;;;;;;16.30;7.07;;;;;;;-0.43;72.20;101686.63;4931620;27;20467;-69
2023/03/15 09:49:10;;;;;;;17.58;7.03;;;;;;;-0.12;72.47;101743.84;4936137;27;20052;-69
2023/03/15 09:51:50;;;;;;;15.52;7.32;;;;;;;-0.09;71.88;101749.13;4943361;27;20049;-67
2023/03/15 09:54:34;;;;;;;19.27;6.97;;;;;;;-0.10;72.15;101750.81;4931772;27;20059;-66
2023/03/15 09:57:09;;;;;;;16.77;7.15;;;;;;;-0.03;71.93;101745.16;4936793;27;20048;-70
2023/03/15 09:59:47;;;;;;;17.98;7.47;;;;;;;-0.02;72.10;101752.06;4947036;27;20516;-65
2023/03/15 10:02:24;;;;;;;16.85;6.93;;;;;;;0.02;72.27;101747.97;4934376;27;20054;-68
2023/03/15 10:05:01;;;;;;;18.23;7.63;;;;;;;0.01;72.36;101729.91;4935458;27;20054;-67
2023/03/15 10:07:32;;;;;;;15.38;7.38;;;;;;;0.17;72.83;101752.97;4937070;27;20142;-66
2023/03/15 10:10:17;;;;;;;15.48;6.75;;;;;;;0.19;72.81;101746.22;4947155;27;20047;-66
2023/03/15 10:12:57;;;;;;;17.20;7.00;;;;;;;0.18;72.74;101734.19;4935387;27;20492;-68
2023/03/15 10:15:37;;;;;;;19.50;7.72;;;;;;;0.23;72.00;101749.84;4935279;27;20051;-66
2023/03/15 10:18:32;;;;;;;18.45;8.05;;;;;;;0.19;72.30;101759.09;4937531;27;20086;-64
2023/03/15 10:21:12;;;;;;;17.92;7.68;;;;;;;0.13;72.34;101751.97;4924119;27;20139;-65
2023/03/15 10:23:50;;;;;;;19.05;7.55;;;;;;;0.13;72.46;101751.09;4935564;27;20130;-69
2023/03/15 10:26:31;;;;;;;18.85;6.70;;;;;;;0.25;72.47;101746.56;4936477;27;20131;-66
2023/03/15 10:29:04;;;;;;;13.82;5.88;;;;;;;0.21;71.92;101749.78;4937882;27;20048;-66
2023/03/15 10:31:47;;;;;;;12.25;6.38;;;;;;;0.12;71.79;101746.72;4945915;27;20054;-67
2023/03/15 10:34:18;;;;;;;15.15;7.00;;;;;;;0.10;71.89;101756.06;4935674;27;20047;-66
2023/03/15 10:37:22;;;;;;;11.27;6.28;;;;;;;0.05;72.19;101757.50;4947182;27;20263;-70
2023/03/15 10:39:57;;;;;;;14.23;6.47;;;;;;;-0.08;71.87;101756.88;4934162;27;20048;-69
2023/03/15 10:42:31;;;;;;;17.45;6.85;;;;;;;-0.09;72.03;101756.84;4945633;27;20154;-68
2023/03/15 10:45:27;;;;;;;15.85;6.53;;;;;;;-0.11;72.03;101761.88;4937633;27;20068;-67
2023/03/15 10:48:02;;;;;;;11.50;6.20;;;;;;;-0.13;72.27;101758.34;4924757;28;20456;-67
2023/03/15 10:50:38;;;;;;;12.98;6.63;;;;;;;-0.13;72.46;101753.19;4945761;27;20138;-66
2023/03/15 10:53:19;;;;;;;16.35;6.72;;;;;;;-0.06;72.53;101750.16;4946471;27;20147;-67
2023/03/15 10:55:58;;;;;;;12.95;7.05;;;;;;;-0.16;72.91;101757.31;4935772;28;20107;-67
2023/03/15 10:58:41;;;;;;;13.70;6.13;;;;;;;-0.15;72.86;101756.50;4935121;27;20453;-69
2023/03/15 11:01:27;;;;;;;16.13;6.57;;;;;;;-0.28;72.78;101737.00;4924471;28;20059;-68
2023/03/15 11:04:15;;;;;;;17.08;6.75;;;;;;;-0.56;72.90;101715.06;4946861;28;20683;-66
2023/03/15 11:06:51;;;;;;;16.02;7.28;;;;;;;-0.64;73.49;101682.97;4934126;28;21259;-70
2023/03/15 11:09:24;;;;;;;18.52;7.18;;;;;;;-0.30;73.66;101743.75;4935049;28;20051;-69
2023/03/15 11:11:59;;;;;;;18.52;6.90;;;;;;;-0.24;73.44;101738.94;4946114;28;20054;-69
2023/03/15 11:14:37;;;;;;;16.13;6.63;;;;;;;-0.56;73.28;101694.50;4944467;28;20161;-66
2023/03/15 11:17:16;;;;;;;12.18;7.35;;;;;;;-0.44;73.85;101725.97;4954206;28;20049;-66
2023/03/15 11:19:56;;;;;;;16.45;7.32;;;;;;;-0.65;73.89;101701.72;4961812;28;20353;-67
2023/03/15 11:22:27;;;;;;;17.27;7.47;;;;;;;-0.57;73.99;101728.72;4952223;28;20112;-67
2023/03/15 11:24:57;;;;;;;15.43;6.80;;;;;;;-0.67;74.12;101734.16;4966836;27;20055;-67
2023/03/15 11:27:30;;;;;;;16.45;7.82;;;;;;;-0.72;74.32;101727.91;4967546;27;20043;-65
2023/03/15 11:30:03;;;;;;;25.17;7.97;;;;;;;-0.69;75.12;101728.06;4961961;27;20056;-65
2023/03/15 11:32:34;;;;;;;22.52;8.02;;;;;;;-0.80;74.69;101709.53;4963669;27;20108;-67
2023/03/15 11:35:07;;;;;;;19.98;10.13;;;;;;;-0.79;75.07;101710.41;4970230;27;20747;-67
2023/03/15 11:37:50;;;;;;;25.17;10.63;;;;;;;-0.84;75.15;101706.72;4960018;27;20062;-66
2023/03/15 11:40:24;;;;;;;25.02;10.05;;;;;;;-0.77;75.26;101704.56;4957965;27;20048;-66
2023/03/15 11:42:58;;;;;;;37.22;11.30;;;;;;;-1.26;75.27;101624.13;4967994;27;20119;-66
2023/03/15 11:45:38;;;;;;;21.17;9.18;;;;;;;-0.78;75.55;101701.91;4967770;27;20108;-67
2023/03/15 11:48:15;;;;;;;19.10;9.43;;;;;;;-1.41;75.41;101584.03;4957185;27;21317;-66
2023/03/15 11:50:58;;;;;;;19.70;8.32;;;;;;;-0.87;75.07;101687.78;4946093;27;20044;-67
2023/03/15 11:53:33;;;;;;;18.00;8.77;;;;;;;-0.87;75.46;101681.78;4931844;28;20102;-67
2023/03/15 11:56:22;;;;;;;20.60;8.90;;;;;;;-0.91;75.67;101680.72;4930462;28;20063;-66
2023/03/15 11:59:10;;;;;;;23.17;9.23;;;;;;;-1.29;75.67;101598.31;4937315;28;20051;-66